createdAt,value
2018-02-19T00:00:39.830Z,-3.70
2018-02-19T00:03:06.357Z,-3.70
2018-02-19T00:05:33.297Z,-3.90
2018-02-19T00:07:59.863Z,-3.90
2018-02-19T00:10:26.770Z,-4.00
2018-02-19T00:12:53.342Z,-4.00
2018-02-19T00:15:19.934Z,-4.10
2018-02-19T00:17:46.461Z,-4.00
2018-02-19T00:20:13.449Z,-4.00
2018-02-19T00:22:40.026Z,-4.00
2018-02-19T00:25:06.563Z,-4.00
2018-02-19T00:27:33.131Z,-3.90
2018-02-19T00:29:59.698Z,-3.90
2018-02-19T00:32:26.226Z,-4.00
2018-02-19T00:34:52.793Z,-4.00
2018-02-19T00:37:19.819Z,-4.00
2018-02-19T00:39:46.351Z,-4.00
2018-02-19T00:42:12.941Z,-4.00
2018-02-19T00:44:39.513Z,-4.10
2018-02-19T00:47:06.054Z,-4.10
2018-02-19T00:49:32.990Z,-4.10
2018-02-19T00:51:59.557Z,-4.10
2018-02-19T00:54:26.466Z,-4.10
2018-02-19T00:56:53.022Z,-4.10
2018-02-19T00:59:19.586Z,-4.10
2018-02-19T01:01:46.121Z,-4.10
2018-02-19T01:04:12.686Z,-4.10
2018-02-19T01:06:39.255Z,-4.10
2018-02-19T01:09:05.806Z,-4.10
2018-02-19T01:11:32.375Z,-4.10
2018-02-19T01:13:58.948Z,-4.20
2018-02-19T01:16:25.487Z,-4.30
2018-02-19T01:18:52.057Z,-4.40
2018-02-19T01:21:18.630Z,-4.30
2018-02-19T01:23:45.535Z,-4.30
2018-02-19T01:26:12.098Z,-4.30
2018-02-19T01:28:38.670Z,-4.30
2018-02-19T01:31:05.574Z,-4.20
2018-02-19T01:33:32.142Z,-4.20
2018-02-19T01:35:58.706Z,-4.20
2018-02-19T01:38:25.237Z,-4.30
2018-02-19T01:40:51.802Z,-4.20
2018-02-19T01:43:18.413Z,-4.20
2018-02-19T01:45:44.945Z,-4.30
2018-02-19T01:48:11.509Z,-4.30
2018-02-19T01:50:38.078Z,-4.30
2018-02-19T01:53:04.616Z,-4.30
2018-02-19T01:55:31.178Z,-4.40
2018-02-19T01:57:57.747Z,-4.20
2018-02-19T02:00:24.658Z,-4.20
2018-02-19T02:02:51.273Z,-4.20
2018-02-19T02:05:17.849Z,-4.20
2018-02-19T02:07:44.385Z,-4.30
2018-02-19T02:10:10.954Z,-4.30
2018-02-19T02:12:37.517Z,-4.40
2018-02-19T02:15:04.054Z,-4.50
2018-02-19T02:17:30.618Z,-4.50
2018-02-19T02:19:57.232Z,-4.60
2018-02-19T02:22:23.761Z,-4.70
2018-02-19T02:24:50.313Z,-4.70
2018-02-19T02:27:16.882Z,-4.70
2018-02-19T02:29:43.418Z,-4.70
2018-02-19T02:32:10.010Z,-4.80
2018-02-19T02:34:36.569Z,-4.70
2018-02-19T02:37:03.474Z,-4.60
2018-02-19T02:39:30.046Z,-4.60
2018-02-19T02:41:56.622Z,-4.50
2018-02-19T02:44:23.558Z,-4.40
2018-02-19T02:46:50.129Z,-4.40
2018-02-19T02:49:17.087Z,-4.50
2018-02-19T02:51:43.990Z,-4.50
2018-02-19T02:54:10.558Z,-4.50
2018-02-19T02:56:37.132Z,-4.60
2018-02-19T02:59:04.055Z,-4.80
2018-02-19T03:01:30.621Z,-4.80
2018-02-19T03:03:57.254Z,-4.80
2018-02-19T03:06:23.785Z,-4.90
2018-02-19T03:08:50.341Z,-4.90
2018-02-19T03:11:16.900Z,-5.00
2018-02-19T03:13:43.434Z,-5.00
2018-02-19T03:16:09.997Z,-5.10
2018-02-19T03:18:36.561Z,-5.10
2018-02-19T03:21:03.471Z,-5.20
2018-02-19T03:23:30.046Z,-5.20
2018-02-19T03:25:56.615Z,-5.30
2018-02-19T03:28:23.525Z,-5.50
2018-02-19T03:30:50.106Z,-5.50
2018-02-19T03:33:16.666Z,-5.50
2018-02-19T03:35:43.574Z,-5.50
2018-02-19T03:38:10.146Z,-5.50
2018-02-19T03:40:36.718Z,-5.50
2018-02-19T03:43:03.631Z,-5.40
2018-02-19T03:45:30.233Z,-5.40
2018-02-19T03:47:57.166Z,-5.30
2018-02-19T03:50:23.705Z,-5.30
2018-02-19T03:52:50.270Z,-5.50
2018-02-19T03:55:17.206Z,-5.90
2018-02-19T03:57:43.746Z,-5.90
2018-02-19T04:00:10.390Z,-6.00
2018-02-19T04:02:36.949Z,-6.10
2018-02-19T04:05:03.493Z,-6.10
2018-02-19T04:07:30.079Z,-6.30
2018-02-19T04:09:57.005Z,-6.40
2018-02-19T04:12:23.539Z,-6.40
2018-02-19T04:14:50.097Z,-6.40
2018-02-19T04:17:16.665Z,-6.40
2018-02-19T04:19:43.564Z,-6.40
2018-02-19T04:22:10.131Z,-6.40
2018-02-19T04:24:36.694Z,-6.40
2018-02-19T04:27:03.269Z,-6.30
2018-02-19T04:29:29.846Z,-6.30
2018-02-19T04:31:56.410Z,-6.20
2018-02-19T04:34:22.944Z,-6.20
2018-02-19T04:36:49.508Z,-6.10
2018-02-19T04:39:16.076Z,-6.00
2018-02-19T04:41:42.610Z,-5.90
2018-02-19T04:44:12.009Z,-5.70
2018-02-19T04:46:40.598Z,-5.50
2018-02-19T04:49:07.138Z,-5.40
2018-02-19T04:51:33.693Z,-5.40
2018-02-19T04:54:00.301Z,-5.40
2018-02-19T04:56:27.200Z,-5.30
2018-02-19T04:58:53.768Z,-5.30
2018-02-19T05:01:20.334Z,-5.20
2018-02-19T05:03:46.884Z,-5.10
2018-02-19T05:06:13.445Z,-5.10
2018-02-19T05:08:40.381Z,-5.10
2018-02-19T05:11:06.918Z,-5.10
2018-02-19T05:13:33.494Z,-5.10
2018-02-19T05:16:00.424Z,-5.10
2018-02-19T05:18:26.958Z,-5.10
2018-02-19T05:20:53.518Z,-5.10
2018-02-19T05:23:20.082Z,-5.00
2018-02-19T05:25:46.610Z,-5.00
2018-02-19T05:28:13.185Z,-4.90
2018-02-19T05:30:40.122Z,-4.80
2018-02-19T05:33:06.661Z,-4.80
2018-02-19T05:35:33.226Z,-4.70
2018-02-19T05:37:59.790Z,-4.70
2018-02-19T05:40:26.690Z,-4.60
2018-02-19T05:42:53.255Z,-4.60
2018-02-19T05:45:19.859Z,-4.60
2018-02-19T05:47:47.318Z,-4.50
2018-02-19T05:50:14.265Z,-4.30
2018-02-19T05:52:41.206Z,-4.20
2018-02-19T05:55:07.761Z,-4.20
2018-02-19T05:57:34.705Z,-4.10
2018-02-19T06:00:01.304Z,-4.10
2018-02-19T06:02:27.833Z,-4.00
2018-02-19T06:04:54.402Z,-4.00
2018-02-19T06:07:20.975Z,-4.00
2018-02-19T06:09:47.515Z,-3.90
2018-02-19T06:12:14.086Z,-3.80
2018-02-19T06:14:40.702Z,-3.80
2018-02-19T06:17:07.241Z,-3.80
2018-02-19T06:19:33.805Z,-3.70
2018-02-19T06:22:00.396Z,-3.70
2018-02-19T06:24:27.297Z,-3.60
2018-02-19T06:26:53.860Z,-3.60
2018-02-19T06:29:20.435Z,-3.60
2018-02-19T06:31:46.977Z,-3.70
2018-02-19T06:34:13.557Z,-3.70
2018-02-19T06:36:40.130Z,-3.70
2018-02-19T06:39:06.654Z,-3.60
2018-02-19T06:41:33.221Z,-3.60
2018-02-19T06:43:59.834Z,-3.60
2018-02-19T06:46:26.765Z,-3.50
2018-02-19T06:48:53.330Z,-3.50
2018-02-19T06:51:20.270Z,-3.60
2018-02-19T06:53:46.801Z,-3.60
2018-02-19T06:56:13.453Z,-3.50
2018-02-19T06:58:40.034Z,-3.60
2018-02-19T07:01:07.031Z,-3.40
2018-02-19T07:03:33.722Z,-3.40
2018-02-19T07:06:00.693Z,-3.30
2018-02-19T07:08:27.594Z,-3.30
2018-02-19T07:10:54.167Z,-3.20
2018-02-19T07:13:20.750Z,-3.10
2018-02-19T07:15:47.658Z,-3.10
2018-02-19T07:18:14.225Z,-3.00
2018-02-19T07:20:40.789Z,-3.00
2018-02-19T07:23:07.702Z,-2.80
2018-02-19T07:25:34.286Z,-2.80
2018-02-19T07:28:00.862Z,-2.80
2018-02-19T07:30:27.766Z,-2.70
2018-02-19T07:32:54.342Z,-2.70
2018-02-19T07:35:20.918Z,-2.70
2018-02-19T07:37:47.466Z,-2.60
2018-02-19T07:40:14.034Z,-2.70
2018-02-19T07:42:40.634Z,-2.70
2018-02-19T07:45:07.577Z,-2.60
2018-02-19T07:47:34.189Z,-2.60
2018-02-19T07:50:00.754Z,-2.50
2018-02-19T07:52:27.298Z,-2.50
2018-02-19T07:54:53.869Z,-2.50
2018-02-19T07:57:20.437Z,-2.60
2018-02-19T07:59:47.342Z,-2.90
2018-02-19T08:02:13.923Z,-2.80
2018-02-19T08:04:47.559Z,-2.80
2018-02-19T08:07:21.658Z,-2.70
2018-02-19T08:09:48.233Z,-2.70
2018-02-19T08:12:15.140Z,-2.70
2018-02-19T08:14:41.709Z,-2.70
2018-02-19T08:17:08.279Z,-2.70
2018-02-19T08:19:35.182Z,-2.60
2018-02-19T08:22:01.762Z,-2.60
2018-02-19T08:24:28.350Z,-2.50
2018-02-19T08:26:54.885Z,-2.40
2018-02-19T08:29:21.830Z,-2.20
2018-02-19T08:31:48.779Z,-2.30
2018-02-19T08:34:15.323Z,-2.20
2018-02-19T08:36:41.891Z,-2.10
2018-02-19T08:39:08.833Z,-1.90
2018-02-19T08:41:35.754Z,-1.90
2018-02-19T08:44:02.389Z,-1.90
2018-02-19T08:46:29.077Z,-1.80
2018-02-19T08:48:55.701Z,-1.80
2018-02-19T08:51:22.375Z,-1.80
2018-02-19T08:53:48.986Z,-1.80
2018-02-19T08:56:16.387Z,-1.70
2018-02-19T08:58:43.034Z,-1.70
2018-02-19T09:01:09.601Z,-1.80
2018-02-19T09:03:36.510Z,-1.70
2018-02-19T09:06:03.510Z,-1.70
2018-02-19T09:08:30.081Z,-1.70
2018-02-19T09:10:56.634Z,-1.70
2018-02-19T09:13:23.197Z,-1.60
2018-02-19T09:15:49.772Z,-1.60
2018-02-19T09:18:17.426Z,-1.70
2018-02-19T09:20:43.999Z,-1.60
2018-02-19T09:23:10.625Z,-1.50
2018-02-19T09:25:37.171Z,-1.60
2018-02-19T09:28:03.738Z,-1.70
2018-02-19T09:30:30.314Z,-1.60
2018-02-19T09:32:57.222Z,-1.60
2018-02-19T09:35:23.795Z,-1.60
2018-02-19T09:37:50.366Z,-1.60
2018-02-19T09:40:17.286Z,-1.60
2018-02-19T09:42:43.862Z,-1.60
2018-02-19T09:45:10.439Z,-1.50
2018-02-19T09:47:37.026Z,-1.50
2018-02-19T09:50:03.703Z,-1.40
2018-02-19T09:52:30.987Z,-1.40
2018-02-19T09:54:57.561Z,-1.30
2018-02-19T09:57:24.134Z,-1.20
2018-02-19T09:59:50.702Z,-1.30
2018-02-19T10:02:17.250Z,-1.30
2018-02-19T10:04:43.830Z,-1.30
2018-02-19T10:07:10.775Z,-1.20
2018-02-19T10:09:37.714Z,-1.10
2018-02-19T10:12:04.361Z,-1.10
2018-02-19T10:14:31.062Z,-1.10
2018-02-19T10:16:57.638Z,-1.00
2018-02-19T10:19:24.217Z,-0.90
2018-02-19T10:21:50.797Z,-1.00
2018-02-19T10:24:17.349Z,-1.00
2018-02-19T10:26:43.918Z,-1.00
2018-02-19T10:29:10.502Z,-1.00
2018-02-19T10:31:37.090Z,-1.00
2018-02-19T10:34:03.653Z,-1.10
2018-02-19T10:36:30.235Z,-1.10
2018-02-19T10:38:56.809Z,-1.00
2018-02-19T10:41:23.742Z,-1.00
2018-02-19T10:43:50.310Z,-1.00
2018-02-19T10:46:16.842Z,-0.90
2018-02-19T10:48:43.471Z,-0.90
2018-02-19T10:51:10.082Z,-1.00
2018-02-19T10:53:36.668Z,-1.10
2018-02-19T10:56:03.730Z,-1.10
2018-02-19T10:58:30.341Z,-1.10
2018-02-19T11:00:56.873Z,-1.00
2018-02-19T11:03:23.444Z,-0.90
2018-02-19T11:05:50.010Z,-1.00
2018-02-19T11:08:16.538Z,-1.00
2018-02-19T11:10:43.138Z,-0.90
2018-02-19T11:13:09.711Z,-0.80
2018-02-19T11:15:36.333Z,-0.70
2018-02-19T11:18:02.932Z,-0.70
2018-02-19T11:20:29.506Z,-0.70
2018-02-19T11:22:56.050Z,-0.70
2018-02-19T11:25:22.614Z,-0.60
2018-02-19T11:27:49.207Z,-0.90
2018-02-19T11:30:15.746Z,-1.00
2018-02-19T11:32:42.379Z,-0.90
2018-02-19T11:35:09.318Z,-1.00
2018-02-19T11:37:35.854Z,-1.00
2018-02-19T11:40:02.525Z,-0.90
2018-02-19T11:42:29.102Z,-1.00
2018-02-19T11:44:56.094Z,-1.00
2018-02-19T11:47:22.706Z,-1.00
2018-02-19T11:49:49.283Z,-1.20
2018-02-19T11:52:15.822Z,-1.20
2018-02-19T11:54:42.433Z,-1.10
2018-02-19T11:57:09.387Z,-1.20
2018-02-19T11:59:36.299Z,-1.20
2018-02-19T12:02:02.916Z,-1.10
2018-02-19T12:04:29.486Z,-1.20
2018-02-19T12:06:56.022Z,-1.20
2018-02-19T12:09:22.592Z,-1.10
2018-02-19T12:11:49.174Z,-1.10
2018-02-19T12:14:16.082Z,-1.30
2018-02-19T12:16:42.678Z,-1.30
2018-02-19T12:19:09.630Z,-1.30
2018-02-19T12:21:36.566Z,-1.40
2018-02-19T12:24:03.203Z,-1.40
2018-02-19T12:26:29.804Z,-1.30
2018-02-19T12:28:56.377Z,-1.30
2018-02-19T12:31:23.030Z,-1.20
2018-02-19T12:33:49.769Z,-1.10
2018-02-19T12:36:16.331Z,-1.10
2018-02-19T12:38:42.899Z,-1.30
2018-02-19T12:41:09.472Z,-1.30
2018-02-19T12:43:36.019Z,-1.20
2018-02-19T12:46:02.982Z,-1.20
2018-02-19T12:48:29.923Z,-1.30
2018-02-19T12:50:56.466Z,-1.30
2018-02-19T12:53:23.111Z,-1.30
2018-02-19T12:55:49.726Z,-1.20
2018-02-19T12:58:16.253Z,-1.30
2018-02-19T13:00:42.825Z,-1.30
2018-02-19T13:03:09.394Z,-1.30
2018-02-19T13:05:35.929Z,-1.20
2018-02-19T13:08:02.578Z,-1.10
2018-02-19T13:10:29.150Z,-1.20
2018-02-19T13:12:55.730Z,-1.20
2018-02-19T13:15:22.721Z,-1.30
2018-02-19T13:17:49.343Z,-1.30
2018-02-19T13:20:23.245Z,-1.30
2018-02-19T13:22:57.117Z,-1.20
2018-02-19T13:25:23.837Z,-1.20
2018-02-19T13:27:50.402Z,-1.20
2018-02-19T13:30:16.926Z,-1.30
2018-02-19T13:32:43.861Z,-1.30
2018-02-19T13:35:10.426Z,-1.30
2018-02-19T13:37:37.374Z,-1.30
2018-02-19T13:40:04.311Z,-1.30
2018-02-19T13:42:30.890Z,-1.30
2018-02-19T13:44:57.460Z,-1.30
2018-02-19T13:47:24.097Z,-1.30
2018-02-19T13:49:50.653Z,-1.10
2018-02-19T13:52:17.189Z,-1.10
2018-02-19T13:54:43.785Z,-1.10
2018-02-19T13:57:10.358Z,-1.30
2018-02-19T13:59:37.276Z,-1.50
2018-02-19T14:02:03.862Z,-1.50
2018-02-19T14:04:30.818Z,-1.50
2018-02-19T14:06:57.735Z,-1.50
2018-02-19T14:09:24.307Z,-1.50
2018-02-19T14:11:50.869Z,-1.50
2018-02-19T14:14:17.766Z,-1.30
2018-02-19T14:16:44.375Z,-1.30
2018-02-19T14:19:11.310Z,-1.20
2018-02-19T14:21:37.850Z,-1.20
2018-02-19T14:24:04.422Z,-1.30
2018-02-19T14:26:31.358Z,-1.20
2018-02-19T14:28:57.894Z,-1.20
2018-02-19T14:31:24.498Z,-1.20
2018-02-19T14:33:51.065Z,-1.20
2018-02-19T14:36:17.598Z,-1.20
2018-02-19T14:38:44.175Z,-1.20
2018-02-19T14:41:10.758Z,-1.10
2018-02-19T14:43:37.294Z,-1.20
2018-02-19T14:46:03.885Z,-1.20
2018-02-19T14:48:30.445Z,-1.20
2018-02-19T14:50:56.982Z,-1.10
2018-02-19T14:53:23.542Z,-1.10
2018-02-19T14:55:50.167Z,-1.20
2018-02-19T14:58:17.070Z,-1.30
2018-02-19T15:00:43.635Z,-1.20
2018-02-19T15:03:10.218Z,-1.30
2018-02-19T15:05:36.749Z,-1.30
2018-02-19T15:08:03.690Z,-1.20
2018-02-19T15:10:30.262Z,-1.20
2018-02-19T15:12:57.175Z,-1.20
2018-02-19T15:15:23.774Z,-1.20
2018-02-19T15:17:50.355Z,-1.10
2018-02-19T15:20:16.911Z,-1.20
2018-02-19T15:22:43.490Z,-1.30
2018-02-19T15:25:10.061Z,-1.40
2018-02-19T15:27:36.601Z,-1.40
2018-02-19T15:30:03.618Z,-1.40
2018-02-19T15:32:30.177Z,-1.40
2018-02-19T15:34:56.742Z,-1.50
2018-02-19T15:37:23.685Z,-1.50
2018-02-19T15:39:50.259Z,-1.50
2018-02-19T15:42:17.158Z,-1.50
2018-02-19T15:44:43.794Z,-1.50
2018-02-19T15:47:10.370Z,-1.50
2018-02-19T15:49:36.930Z,-1.60
2018-02-19T15:52:03.606Z,-1.70
2018-02-19T15:54:30.618Z,-1.70
2018-02-19T15:56:57.174Z,-1.70
2018-02-19T15:59:23.771Z,-1.70
2018-02-19T16:01:50.358Z,-1.70
2018-02-19T16:04:16.917Z,-1.70
2018-02-19T16:06:43.566Z,-1.70
2018-02-19T16:09:10.135Z,-1.70
2018-02-19T16:11:36.662Z,-1.80
2018-02-19T16:14:03.283Z,-1.80
2018-02-19T16:16:29.880Z,-1.80
2018-02-19T16:18:56.417Z,-1.70
2018-02-19T16:21:22.991Z,-1.80
2018-02-19T16:23:49.565Z,-1.80
2018-02-19T16:26:16.118Z,-1.80
2018-02-19T16:28:42.810Z,-1.80
2018-02-19T16:31:09.385Z,-1.80
2018-02-19T16:33:36.290Z,-2.00
2018-02-19T16:36:02.906Z,-2.00
2018-02-19T16:38:29.478Z,-1.90
2018-02-19T16:40:56.023Z,-1.90
2018-02-19T16:43:22.585Z,-1.90
2018-02-19T16:45:49.161Z,-1.90
2018-02-19T16:48:15.693Z,-1.90
2018-02-19T16:50:42.266Z,-1.90
2018-02-19T16:53:09.210Z,-2.00
2018-02-19T16:55:35.777Z,-2.00
2018-02-19T16:58:02.725Z,-2.00
2018-02-19T17:00:29.294Z,-2.00
2018-02-19T17:02:55.867Z,-2.00
2018-02-19T17:05:22.439Z,-2.00
2018-02-19T17:07:48.981Z,-2.00
2018-02-19T17:10:15.566Z,-2.00
2018-02-19T17:12:42.478Z,-2.10
2018-02-19T17:15:09.045Z,-2.10
2018-02-19T17:17:35.812Z,-2.10
2018-02-19T17:20:02.418Z,-2.00
2018-02-19T17:22:29.043Z,-2.00
2018-02-19T17:24:55.590Z,-2.00
2018-02-19T17:27:22.169Z,-2.10
2018-02-19T17:29:48.730Z,-2.00
2018-02-19T17:32:15.270Z,-2.00
2018-02-19T17:34:41.886Z,-2.10
2018-02-19T17:37:08.438Z,-2.00
2018-02-19T17:39:35.043Z,-2.00
2018-02-19T17:42:01.982Z,-2.00
2018-02-19T17:44:28.518Z,-2.00
2018-02-19T17:46:55.089Z,-2.00
2018-02-19T17:49:21.990Z,-2.00
2018-02-19T17:51:48.621Z,-2.00
2018-02-19T17:54:15.198Z,-2.10
2018-02-19T17:56:41.778Z,-2.10
2018-02-19T17:59:08.361Z,-2.00
2018-02-19T18:01:34.910Z,-2.00
2018-02-19T18:04:01.506Z,-2.10
2018-02-19T18:06:28.130Z,-2.20
2018-02-19T18:08:54.667Z,-2.20
2018-02-19T18:11:21.239Z,-2.20
2018-02-19T18:13:47.807Z,-2.20
2018-02-19T18:16:14.386Z,-2.20
2018-02-19T18:18:41.369Z,-2.20
2018-02-19T18:21:07.947Z,-2.20
2018-02-19T18:23:34.510Z,-2.10
2018-02-19T18:26:01.085Z,-2.10
2018-02-19T18:28:28.037Z,-2.10
2018-02-19T18:30:54.951Z,-2.00
2018-02-19T18:33:21.522Z,-2.00
2018-02-19T18:35:48.070Z,-2.00
2018-02-19T18:38:14.642Z,-2.00
2018-02-19T18:40:41.570Z,-2.00
2018-02-19T18:43:08.247Z,-2.00
2018-02-19T18:45:34.824Z,-2.00
2018-02-19T18:48:01.393Z,-2.00
2018-02-19T18:50:27.973Z,-2.00
2018-02-19T18:52:54.877Z,-2.10
2018-02-19T18:55:21.513Z,-2.10
2018-02-19T18:57:48.139Z,-2.10
2018-02-19T19:00:14.701Z,-2.10
2018-02-19T19:02:41.274Z,-2.10
2018-02-19T19:05:22.690Z,-2.10
2018-02-19T19:08:01.447Z,-2.10
2018-02-19T19:10:40.542Z,-2.10
2018-02-19T19:13:07.166Z,-2.10
2018-02-19T19:15:33.760Z,-2.10
2018-02-19T19:18:00.722Z,-2.10
2018-02-19T19:20:27.315Z,-2.10
2018-02-19T19:22:53.886Z,-2.10
2018-02-19T19:25:21.534Z,-2.10
2018-02-19T19:27:48.486Z,-2.10
2018-02-19T19:30:15.035Z,-2.10
2018-02-19T19:32:42.903Z,-2.10
2018-02-19T19:35:09.969Z,-2.10
2018-02-19T19:40:09.834Z,-2.10
2018-02-19T19:42:36.703Z,-2.10
2018-02-19T19:45:04.813Z,-2.20
2018-02-19T19:47:36.405Z,-2.10
2018-02-19T19:50:03.058Z,-2.10
2018-02-19T19:52:29.722Z,-2.00
2018-02-19T19:54:56.647Z,-2.10
2018-02-19T19:57:23.271Z,-2.10
2018-02-19T19:59:50.750Z,-2.10
2018-02-19T20:02:18.287Z,-2.00
2018-02-19T20:04:44.889Z,-2.00
2018-02-19T20:07:11.479Z,-2.00
2018-02-19T20:09:38.005Z,-2.00
2018-02-19T20:12:04.999Z,-1.90
2018-02-19T20:14:31.597Z,-2.00
2018-02-19T20:16:58.150Z,-1.90
2018-02-19T20:19:24.727Z,-1.90
2018-02-19T20:21:51.313Z,-1.90
2018-02-19T20:24:17.875Z,-1.90
2018-02-19T20:26:44.498Z,-1.90
2018-02-19T20:29:11.073Z,-2.00
2018-02-19T20:31:37.638Z,-2.00
2018-02-19T20:34:11.362Z,-2.00
2018-02-19T20:36:38.306Z,-1.90
2018-02-19T20:39:05.230Z,-1.90
2018-02-19T20:41:31.819Z,-1.90
2018-02-19T20:43:58.767Z,-1.90
2018-02-19T20:46:25.345Z,-2.00
2018-02-19T20:48:51.919Z,-1.90
2018-02-19T20:51:18.587Z,-2.00
2018-02-19T20:53:45.152Z,-2.00
2018-02-19T20:56:12.340Z,-2.00
2018-02-19T20:58:39.359Z,-2.00
2018-02-19T21:01:05.971Z,-1.90
2018-02-19T21:03:32.595Z,-1.90
2018-02-19T21:05:59.579Z,-2.00
2018-02-19T21:08:26.135Z,-1.90
2018-02-19T21:10:52.751Z,-1.90
2018-02-19T21:13:19.714Z,-1.90
2018-02-19T21:15:46.270Z,-1.90
2018-02-19T21:18:12.859Z,-1.90
2018-02-19T21:20:39.457Z,-1.90
2018-02-19T21:23:06.014Z,-1.90
2018-02-19T21:25:32.586Z,-2.00
2018-02-19T21:27:59.166Z,-2.00
2018-02-19T21:30:25.755Z,-2.00
2018-02-19T21:32:52.366Z,-2.00
2018-02-19T21:35:19.598Z,-2.00
2018-02-19T21:37:46.479Z,-2.00
2018-02-19T21:40:13.474Z,-2.10
2018-02-19T21:42:40.066Z,-2.10
2018-02-19T21:45:06.652Z,-2.10
2018-02-19T21:47:33.615Z,-2.10
2018-02-19T21:50:00.849Z,-2.00
2018-02-19T21:52:27.655Z,-2.00
2018-02-19T21:54:54.247Z,-2.00
2018-02-19T21:57:20.822Z,-2.00
2018-02-19T21:59:47.737Z,-2.00
2018-02-19T22:02:14.416Z,-2.10
2018-02-19T22:04:41.378Z,-2.10
2018-02-19T22:07:08.286Z,-2.10
2018-02-19T22:09:34.855Z,-2.10
2018-02-19T22:12:01.424Z,-2.20
2018-02-19T22:14:28.342Z,-2.20
2018-02-19T22:16:54.914Z,-2.20
2018-02-19T22:19:21.486Z,-2.20
2018-02-19T22:21:48.399Z,-2.20
2018-02-19T22:24:14.970Z,-2.20
2018-02-19T22:26:41.542Z,-2.20
2018-02-19T22:29:08.075Z,-2.20
2018-02-19T22:31:35.009Z,-2.20
2018-02-19T22:34:01.588Z,-2.20
2018-02-19T22:36:28.499Z,-2.10
2018-02-19T22:38:55.075Z,-2.10
2018-02-19T22:41:21.649Z,-2.10
2018-02-19T22:43:48.181Z,-2.10
2018-02-19T22:46:15.110Z,-2.10
2018-02-19T22:48:41.673Z,-2.10
2018-02-19T22:51:08.201Z,-2.10
2018-02-19T22:53:34.775Z,-2.10
2018-02-19T22:56:01.722Z,-2.10
2018-02-19T22:58:28.265Z,-2.10
2018-02-19T23:00:54.843Z,-2.10
2018-02-19T23:03:21.454Z,-2.10
2018-02-19T23:05:48.009Z,-2.10
2018-02-19T23:08:14.573Z,-2.10
2018-02-19T23:10:41.512Z,-2.00
2018-02-19T23:13:08.050Z,-2.00
2018-02-19T23:15:34.619Z,-2.00
2018-02-19T23:18:01.558Z,-2.00
2018-02-19T23:20:28.081Z,-2.00
2018-02-19T23:22:54.647Z,-2.00
2018-02-19T23:25:21.216Z,-2.00
2018-02-19T23:27:48.125Z,-2.00
2018-02-19T23:30:14.703Z,-2.00
2018-02-19T23:32:41.271Z,-2.00
2018-02-19T23:35:08.241Z,-2.10
2018-02-19T23:37:34.786Z,-2.00
2018-02-19T23:40:01.370Z,-2.10
2018-02-19T23:42:27.923Z,-2.20
2018-02-19T23:44:54.506Z,-2.10
2018-02-19T23:47:21.069Z,-2.20
2018-02-19T23:49:47.969Z,-2.30
2018-02-19T23:52:14.541Z,-2.30
2018-02-19T23:54:41.115Z,-2.30
2018-02-19T23:57:08.020Z,-2.20
2018-02-19T23:59:34.626Z,-2.20
